sensor_id;sensor_type;location;lat;lon;timestamp;P1;durP1;ratioP1;P2;durP2;ratioP2
7833;SDS011;3962;42.696;23.354;2022-09-27T00:01:52;12.20;;;9.30;;
7833;SDS011;3962;42.696;23.354;2022-09-27T00:04:29;12.73;;;8.80;;
7833;SDS011;3962;42.696;23.354;2022-09-27T00:09:51;11.90;;;8.60;;
7833;SDS011;3962;42.696;23.354;2022-09-27T00:12:20;10.87;;;8.57;;
7833;SDS011;3962;42.696;23.354;2022-09-27T00:14:58;12.40;;;8.90;;
7833;SDS011;3962;42.696;23.354;2022-09-27T00:17:34;12.63;;;9.13;;
7833;SDS011;3962;42.696;23.354;2022-09-27T00:20:11;11.47;;;8.20;;
7833;SDS011;3962;42.696;23.354;2022-09-27T00:22:41;11.33;;;9.40;;
7833;SDS011;3962;42.696;23.354;2022-09-27T00:25:08;13.07;;;9.30;;
7833;SDS011;3962;42.696;23.354;2022-09-27T00:27:35;13.07;;;9.77;;
7833;SDS011;3962;42.696;23.354;2022-09-27T00:30:01;12.43;;;9.33;;
7833;SDS011;3962;42.696;23.354;2022-09-27T00:32:28;12.57;;;9.53;;
7833;SDS011;3962;42.696;23.354;2022-09-27T00:34:55;15.40;;;10.80;;
7833;SDS011;3962;42.696;23.354;2022-09-27T00:37:23;12.83;;;10.43;;
7833;SDS011;3962;42.696;23.354;2022-09-27T00:39:51;13.43;;;10.30;;
7833;SDS011;3962;42.696;23.354;2022-09-27T00:42:18;12.97;;;9.73;;
7833;SDS011;3962;42.696;23.354;2022-09-27T00:44:52;12.20;;;9.17;;
7833;SDS011;3962;42.696;23.354;2022-09-27T00:47:26;10.27;;;8.53;;
7833;SDS011;3962;42.696;23.354;2022-09-27T00:49:59;13.10;;;9.27;;
7833;SDS011;3962;42.696;23.354;2022-09-27T00:52:33;12.07;;;9.30;;
7833;SDS011;3962;42.696;23.354;2022-09-27T00:55:07;14.97;;;9.17;;
7833;SDS011;3962;42.696;23.354;2022-09-27T00:57:38;13.33;;;9.30;;
7833;SDS011;3962;42.696;23.354;2022-09-27T01:00:07;11.70;;;8.60;;
7833;SDS011;3962;42.696;23.354;2022-09-27T01:02:36;13.97;;;9.00;;
7833;SDS011;3962;42.696;23.354;2022-09-27T01:05:04;12.60;;;9.63;;
7833;SDS011;3962;42.696;23.354;2022-09-27T01:07:34;12.63;;;9.87;;
7833;SDS011;3962;42.696;23.354;2022-09-27T01:10:01;11.93;;;9.40;;
7833;SDS011;3962;42.696;23.354;2022-09-27T01:12:30;11.90;;;9.07;;
7833;SDS011;3962;42.696;23.354;2022-09-27T01:15:10;11.63;;;9.60;;
7833;SDS011;3962;42.696;23.354;2022-09-27T01:17:46;12.93;;;9.27;;
7833;SDS011;3962;42.696;23.354;2022-09-27T01:20:27;15.83;;;10.30;;
7833;SDS011;3962;42.696;23.354;2022-09-27T01:26:23;11.00;;;9.33;;
7833;SDS011;3962;42.696;23.354;2022-09-27T01:29:03;14.73;;;9.27;;
7833;SDS011;3962;42.696;23.354;2022-09-27T01:31:39;14.33;;;10.23;;
7833;SDS011;3962;42.696;23.354;2022-09-27T01:34:15;12.63;;;9.90;;
7833;SDS011;3962;42.696;23.354;2022-09-27T01:36:52;11.83;;;9.47;;
7833;SDS011;3962;42.696;23.354;2022-09-27T01:39:31;13.33;;;9.27;;
7833;SDS011;3962;42.696;23.354;2022-09-27T01:42:05;16.57;;;9.63;;
7833;SDS011;3962;42.696;23.354;2022-09-27T01:44:36;13.13;;;10.00;;
7833;SDS011;3962;42.696;23.354;2022-09-27T01:47:11;16.40;;;10.20;;
7833;SDS011;3962;42.696;23.354;2022-09-27T01:49:44;11.87;;;9.90;;
7833;SDS011;3962;42.696;23.354;2022-09-27T01:52:18;12.80;;;10.00;;
7833;SDS011;3962;42.696;23.354;2022-09-27T01:54:49;13.07;;;10.30;;
7833;SDS011;3962;42.696;23.354;2022-09-27T01:57:21;15.07;;;10.47;;
7833;SDS011;3962;42.696;23.354;2022-09-27T01:59:52;13.83;;;10.00;;
7833;SDS011;3962;42.696;23.354;2022-09-27T02:02:25;14.50;;;10.50;;
7833;SDS011;3962;42.696;23.354;2022-09-27T02:04:54;12.97;;;9.97;;
7833;SDS011;3962;42.696;23.354;2022-09-27T02:07:26;13.00;;;10.40;;
7833;SDS011;3962;42.696;23.354;2022-09-27T02:09:57;20.17;;;10.53;;
7833;SDS011;3962;42.696;23.354;2022-09-27T02:12:30;12.47;;;9.47;;
7833;SDS011;3962;42.696;23.354;2022-09-27T02:15:00;12.70;;;9.33;;
7833;SDS011;3962;42.696;23.354;2022-09-27T02:17:36;13.93;;;9.10;;
7833;SDS011;3962;42.696;23.354;2022-09-27T02:20:10;12.83;;;9.57;;
7833;SDS011;3962;42.696;23.354;2022-09-27T02:22:43;13.73;;;9.40;;
7833;SDS011;3962;42.696;23.354;2022-09-27T02:25:15;12.87;;;10.23;;
7833;SDS011;3962;42.696;23.354;2022-09-27T02:27:48;13.73;;;10.57;;
7833;SDS011;3962;42.696;23.354;2022-09-27T02:30:21;12.77;;;9.40;;
7833;SDS011;3962;42.696;23.354;2022-09-27T02:32:49;11.87;;;9.00;;
7833;SDS011;3962;42.696;23.354;2022-09-27T02:35:17;14.50;;;9.30;;
7833;SDS011;3962;42.696;23.354;2022-09-27T02:37:47;13.63;;;10.20;;
7833;SDS011;3962;42.696;23.354;2022-09-27T02:40:16;11.50;;;8.83;;
7833;SDS011;3962;42.696;23.354;2022-09-27T02:42:43;12.63;;;9.63;;
7833;SDS011;3962;42.696;23.354;2022-09-27T02:45:10;13.77;;;10.17;;
7833;SDS011;3962;42.696;23.354;2022-09-27T02:47:44;13.50;;;9.73;;
7833;SDS011;3962;42.696;23.354;2022-09-27T02:53:17;16.37;;;10.17;;
7833;SDS011;3962;42.696;23.354;2022-09-27T02:55:55;13.10;;;10.40;;
7833;SDS011;3962;42.696;23.354;2022-09-27T02:58:30;13.23;;;10.37;;
7833;SDS011;3962;42.696;23.354;2022-09-27T03:01:11;15.70;;;11.30;;
7833;SDS011;3962;42.696;23.354;2022-09-27T03:03:48;13.63;;;10.93;;
7833;SDS011;3962;42.696;23.354;2022-09-27T03:06:19;15.30;;;10.43;;
7833;SDS011;3962;42.696;23.354;2022-09-27T03:08:49;13.03;;;9.63;;
7833;SDS011;3962;42.696;23.354;2022-09-27T03:11:16;14.33;;;11.03;;
7833;SDS011;3962;42.696;23.354;2022-09-27T03:13:43;14.80;;;10.80;;
7833;SDS011;3962;42.696;23.354;2022-09-27T03:16:10;13.70;;;10.53;;
7833;SDS011;3962;42.696;23.354;2022-09-27T03:18:37;13.50;;;10.97;;
7833;SDS011;3962;42.696;23.354;2022-09-27T03:21:05;13.67;;;10.87;;
7833;SDS011;3962;42.696;23.354;2022-09-27T03:23:32;14.73;;;10.70;;
7833;SDS011;3962;42.696;23.354;2022-09-27T03:25:59;17.23;;;11.73;;
7833;SDS011;3962;42.696;23.354;2022-09-27T03:28:25;14.67;;;10.97;;
7833;SDS011;3962;42.696;23.354;2022-09-27T03:30:54;14.73;;;11.30;;
7833;SDS011;3962;42.696;23.354;2022-09-27T03:33:20;12.47;;;10.47;;
7833;SDS011;3962;42.696;23.354;2022-09-27T03:35:48;15.20;;;11.00;;
7833;SDS011;3962;42.696;23.354;2022-09-27T03:38:16;13.53;;;10.70;;
7833;SDS011;3962;42.696;23.354;2022-09-27T03:40:43;12.47;;;10.60;;
7833;SDS011;3962;42.696;23.354;2022-09-27T03:43:10;14.53;;;11.37;;
7833;SDS011;3962;42.696;23.354;2022-09-27T03:45:36;14.87;;;10.87;;
7833;SDS011;3962;42.696;23.354;2022-09-27T03:48:03;12.67;;;10.57;;
7833;SDS011;3962;42.696;23.354;2022-09-27T03:50:30;14.87;;;11.20;;
7833;SDS011;3962;42.696;23.354;2022-09-27T03:52:57;15.27;;;11.83;;
7833;SDS011;3962;42.696;23.354;2022-09-27T03:58:19;14.67;;;10.60;;
7833;SDS011;3962;42.696;23.354;2022-09-27T04:00:48;14.53;;;11.43;;
7833;SDS011;3962;42.696;23.354;2022-09-27T04:03:15;15.33;;;11.83;;
7833;SDS011;3962;42.696;23.354;2022-09-27T04:05:44;13.23;;;11.00;;
7833;SDS011;3962;42.696;23.354;2022-09-27T04:08:11;13.40;;;11.03;;
7833;SDS011;3962;42.696;23.354;2022-09-27T04:10:38;14.20;;;11.10;;
7833;SDS011;3962;42.696;23.354;2022-09-27T04:13:06;15.30;;;11.40;;
7833;SDS011;3962;42.696;23.354;2022-09-27T04:15:33;16.20;;;12.30;;
7833;SDS011;3962;42.696;23.354;2022-09-27T04:18:00;12.90;;;11.50;;
7833;SDS011;3962;42.696;23.354;2022-09-27T04:20:27;14.83;;;12.20;;
7833;SDS011;3962;42.696;23.354;2022-09-27T04:22:53;15.33;;;11.87;;
7833;SDS011;3962;42.696;23.354;2022-09-27T04:25:20;18.73;;;12.80;;
7833;SDS011;3962;42.696;23.354;2022-09-27T04:27:47;15.03;;;12.10;;
7833;SDS011;3962;42.696;23.354;2022-09-27T04:30:17;15.77;;;12.17;;
7833;SDS011;3962;42.696;23.354;2022-09-27T04:32:44;18.10;;;14.43;;
7833;SDS011;3962;42.696;23.354;2022-09-27T04:35:11;25.33;;;11.83;;
7833;SDS011;3962;42.696;23.354;2022-09-27T04:38:01;14.90;;;12.03;;
7833;SDS011;3962;42.696;23.354;2022-09-27T04:40:28;16.43;;;13.30;;
7833;SDS011;3962;42.696;23.354;2022-09-27T04:42:55;19.67;;;14.37;;
7833;SDS011;3962;42.696;23.354;2022-09-27T04:45:23;18.07;;;14.93;;
7833;SDS011;3962;42.696;23.354;2022-09-27T04:47:50;26.47;;;19.37;;
7833;SDS011;3962;42.696;23.354;2022-09-27T04:50:17;22.20;;;15.83;;
7833;SDS011;3962;42.696;23.354;2022-09-27T04:52:48;24.17;;;19.80;;
7833;SDS011;3962;42.696;23.354;2022-09-27T04:55:16;19.17;;;15.47;;
7833;SDS011;3962;42.696;23.354;2022-09-27T04:57:45;18.30;;;15.00;;
7833;SDS011;3962;42.696;23.354;2022-09-27T05:00:12;16.23;;;13.33;;
7833;SDS011;3962;42.696;23.354;2022-09-27T05:02:42;17.90;;;14.43;;
7833;SDS011;3962;42.696;23.354;2022-09-27T05:05:09;17.97;;;14.40;;
7833;SDS011;3962;42.696;23.354;2022-09-27T05:07:37;17.27;;;13.80;;
7833;SDS011;3962;42.696;23.354;2022-09-27T05:10:04;18.10;;;12.97;;
7833;SDS011;3962;42.696;23.354;2022-09-27T05:12:31;19.17;;;14.53;;
7833;SDS011;3962;42.696;23.354;2022-09-27T05:14:58;17.60;;;13.47;;
7833;SDS011;3962;42.696;23.354;2022-09-27T05:17:25;16.33;;;13.33;;
7833;SDS011;3962;42.696;23.354;2022-09-27T05:19:53;19.17;;;13.17;;
7833;SDS011;3962;42.696;23.354;2022-09-27T05:22:20;19.60;;;13.03;;
7833;SDS011;3962;42.696;23.354;2022-09-27T05:24:47;19.13;;;13.67;;
7833;SDS011;3962;42.696;23.354;2022-09-27T05:27:14;17.57;;;13.07;;
7833;SDS011;3962;42.696;23.354;2022-09-27T05:29:42;19.67;;;12.87;;
7833;SDS011;3962;42.696;23.354;2022-09-27T05:32:09;20.03;;;15.97;;
7833;SDS011;3962;42.696;23.354;2022-09-27T05:34:36;16.33;;;12.50;;
7833;SDS011;3962;42.696;23.354;2022-09-27T05:37:04;17.23;;;13.70;;
7833;SDS011;3962;42.696;23.354;2022-09-27T05:39:31;15.70;;;12.27;;
7833;SDS011;3962;42.696;23.354;2022-09-27T05:41:58;15.80;;;12.13;;
7833;SDS011;3962;42.696;23.354;2022-09-27T05:44:26;18.47;;;13.30;;
7833;SDS011;3962;42.696;23.354;2022-09-27T05:46:53;17.07;;;13.30;;
7833;SDS011;3962;42.696;23.354;2022-09-27T05:49:20;24.87;;;14.37;;
7833;SDS011;3962;42.696;23.354;2022-09-27T05:51:47;19.00;;;14.80;;
7833;SDS011;3962;42.696;23.354;2022-09-27T05:54:16;19.07;;;14.00;;
7833;SDS011;3962;42.696;23.354;2022-09-27T05:56:43;17.43;;;14.10;;
7833;SDS011;3962;42.696;23.354;2022-09-27T05:59:10;17.47;;;13.80;;
7833;SDS011;3962;42.696;23.354;2022-09-27T06:01:36;19.43;;;15.50;;
7833;SDS011;3962;42.696;23.354;2022-09-27T06:04:03;20.67;;;14.03;;
7833;SDS011;3962;42.696;23.354;2022-09-27T06:06:30;21.57;;;15.47;;
7833;SDS011;3962;42.696;23.354;2022-09-27T06:09:00;19.63;;;15.50;;
7833;SDS011;3962;42.696;23.354;2022-09-27T06:11:29;23.63;;;15.90;;
7833;SDS011;3962;42.696;23.354;2022-09-27T06:13:56;18.47;;;15.40;;
7833;SDS011;3962;42.696;23.354;2022-09-27T06:16:22;20.13;;;16.23;;
7833;SDS011;3962;42.696;23.354;2022-09-27T06:18:49;22.93;;;15.77;;
7833;SDS011;3962;42.696;23.354;2022-09-27T06:21:16;22.50;;;17.17;;
7833;SDS011;3962;42.696;23.354;2022-09-27T06:23:43;23.53;;;17.47;;
7833;SDS011;3962;42.696;23.354;2022-09-27T06:26:09;22.93;;;17.10;;
7833;SDS011;3962;42.696;23.354;2022-09-27T06:28:38;23.50;;;18.10;;
7833;SDS011;3962;42.696;23.354;2022-09-27T06:31:06;20.77;;;15.60;;
7833;SDS011;3962;42.696;23.354;2022-09-27T06:33:35;19.97;;;15.73;;
7833;SDS011;3962;42.696;23.354;2022-09-27T06:36:03;21.80;;;16.10;;
7833;SDS011;3962;42.696;23.354;2022-09-27T06:38:31;20.13;;;14.70;;
7833;SDS011;3962;42.696;23.354;2022-09-27T06:40:59;18.63;;;15.20;;
7833;SDS011;3962;42.696;23.354;2022-09-27T06:43:27;21.87;;;16.63;;
7833;SDS011;3962;42.696;23.354;2022-09-27T06:45:57;24.37;;;17.67;;
7833;SDS011;3962;42.696;23.354;2022-09-27T06:48:25;19.30;;;16.50;;
7833;SDS011;3962;42.696;23.354;2022-09-27T06:50:52;27.37;;;18.53;;
7833;SDS011;3962;42.696;23.354;2022-09-27T06:53:22;23.93;;;18.13;;
7833;SDS011;3962;42.696;23.354;2022-09-27T06:55:49;21.67;;;17.17;;
7833;SDS011;3962;42.696;23.354;2022-09-27T06:58:16;28.27;;;20.33;;
7833;SDS011;3962;42.696;23.354;2022-09-27T07:01:02;25.43;;;17.70;;
7833;SDS011;3962;42.696;23.354;2022-09-27T07:03:29;26.30;;;18.37;;
7833;SDS011;3962;42.696;23.354;2022-09-27T07:05:58;24.90;;;18.53;;
7833;SDS011;3962;42.696;23.354;2022-09-27T07:08:27;20.73;;;17.13;;
7833;SDS011;3962;42.696;23.354;2022-09-27T07:10:55;21.80;;;16.20;;
7833;SDS011;3962;42.696;23.354;2022-09-27T07:13:28;21.33;;;16.10;;
7833;SDS011;3962;42.696;23.354;2022-09-27T07:15:58;21.57;;;16.20;;
7833;SDS011;3962;42.696;23.354;2022-09-27T07:18:28;22.53;;;14.80;;
7833;SDS011;3962;42.696;23.354;2022-09-27T07:20:55;16.27;;;13.23;;
7833;SDS011;3962;42.696;23.354;2022-09-27T07:23:24;19.23;;;14.37;;
7833;SDS011;3962;42.696;23.354;2022-09-27T07:25:51;18.77;;;14.87;;
7833;SDS011;3962;42.696;23.354;2022-09-27T07:28:18;18.23;;;14.43;;
7833;SDS011;3962;42.696;23.354;2022-09-27T07:30:45;20.60;;;15.43;;
7833;SDS011;3962;42.696;23.354;2022-09-27T07:33:12;26.33;;;17.80;;
7833;SDS011;3962;42.696;23.354;2022-09-27T07:35:40;19.80;;;15.03;;
7833;SDS011;3962;42.696;23.354;2022-09-27T07:38:08;19.23;;;15.67;;
7833;SDS011;3962;42.696;23.354;2022-09-27T07:40:37;19.57;;;15.63;;
7833;SDS011;3962;42.696;23.354;2022-09-27T07:43:05;18.63;;;15.40;;
7833;SDS011;3962;42.696;23.354;2022-09-27T07:45:33;18.33;;;13.90;;
7833;SDS011;3962;42.696;23.354;2022-09-27T07:48:02;15.97;;;13.43;;
7833;SDS011;3962;42.696;23.354;2022-09-27T07:50:30;20.57;;;14.13;;
7833;SDS011;3962;42.696;23.354;2022-09-27T07:52:58;18.23;;;12.70;;
7833;SDS011;3962;42.696;23.354;2022-09-27T07:55:25;19.10;;;14.23;;
7833;SDS011;3962;42.696;23.354;2022-09-27T07:57:51;17.37;;;13.43;;
7833;SDS011;3962;42.696;23.354;2022-09-27T08:00:28;16.27;;;12.70;;
7833;SDS011;3962;42.696;23.354;2022-09-27T08:02:54;20.50;;;13.77;;
7833;SDS011;3962;42.696;23.354;2022-09-27T08:05:21;21.40;;;13.97;;
7833;SDS011;3962;42.696;23.354;2022-09-27T08:07:52;25.10;;;16.47;;
7833;SDS011;3962;42.696;23.354;2022-09-27T08:10:21;19.10;;;14.73;;
7833;SDS011;3962;42.696;23.354;2022-09-27T08:12:49;18.97;;;14.40;;
7833;SDS011;3962;42.696;23.354;2022-09-27T08:15:17;18.83;;;13.67;;
7833;SDS011;3962;42.696;23.354;2022-09-27T08:17:43;21.47;;;13.77;;
7833;SDS011;3962;42.696;23.354;2022-09-27T08:20:10;21.53;;;16.10;;
7833;SDS011;3962;42.696;23.354;2022-09-27T08:22:39;21.63;;;15.53;;
7833;SDS011;3962;42.696;23.354;2022-09-27T08:25:07;21.00;;;15.67;;
7833;SDS011;3962;42.696;23.354;2022-09-27T08:27:36;21.93;;;14.60;;
7833;SDS011;3962;42.696;23.354;2022-09-27T08:30:03;22.33;;;17.03;;
7833;SDS011;3962;42.696;23.354;2022-09-27T08:32:30;18.47;;;14.60;;
7833;SDS011;3962;42.696;23.354;2022-09-27T08:34:58;19.77;;;15.20;;
7833;SDS011;3962;42.696;23.354;2022-09-27T08:37:25;18.80;;;15.00;;
7833;SDS011;3962;42.696;23.354;2022-09-27T08:39:52;29.10;;;23.27;;
7833;SDS011;3962;42.696;23.354;2022-09-27T08:42:22;21.93;;;15.20;;
7833;SDS011;3962;42.696;23.354;2022-09-27T08:44:58;20.43;;;16.73;;
7833;SDS011;3962;42.696;23.354;2022-09-27T08:47:33;19.40;;;14.70;;
7833;SDS011;3962;42.696;23.354;2022-09-27T08:50:07;15.30;;;11.70;;
7833;SDS011;3962;42.696;23.354;2022-09-27T08:52:45;16.80;;;13.23;;
7833;SDS011;3962;42.696;23.354;2022-09-27T08:55:19;15.97;;;11.83;;
7833;SDS011;3962;42.696;23.354;2022-09-27T08:57:51;20.07;;;12.53;;
7833;SDS011;3962;42.696;23.354;2022-09-27T09:00:22;13.67;;;12.07;;
7833;SDS011;3962;42.696;23.354;2022-09-27T09:02:50;14.37;;;11.47;;
7833;SDS011;3962;42.696;23.354;2022-09-27T09:05:21;15.03;;;10.90;;
7833;SDS011;3962;42.696;23.354;2022-09-27T09:07:58;14.57;;;11.90;;
7833;SDS011;3962;42.696;23.354;2022-09-27T09:10:39;14.30;;;10.67;;
7833;SDS011;3962;42.696;23.354;2022-09-27T09:13:36;14.77;;;11.60;;
7833;SDS011;3962;42.696;23.354;2022-09-27T09:16:20;14.27;;;11.77;;
7833;SDS011;3962;42.696;23.354;2022-09-27T09:18:59;14.50;;;10.97;;
7833;SDS011;3962;42.696;23.354;2022-09-27T09:21:40;15.23;;;11.57;;
7833;SDS011;3962;42.696;23.354;2022-09-27T09:24:21;13.70;;;11.50;;
7833;SDS011;3962;42.696;23.354;2022-09-27T09:26:56;17.23;;;11.77;;
7833;SDS011;3962;42.696;23.354;2022-09-27T09:32:37;17.23;;;13.10;;
7833;SDS011;3962;42.696;23.354;2022-09-27T09:35:14;13.43;;;10.87;;
7833;SDS011;3962;42.696;23.354;2022-09-27T09:37:43;14.73;;;12.17;;
7833;SDS011;3962;42.696;23.354;2022-09-27T09:40:16;15.50;;;11.40;;
7833;SDS011;3962;42.696;23.354;2022-09-27T09:42:48;13.77;;;11.40;;
7833;SDS011;3962;42.696;23.354;2022-09-27T09:45:21;13.47;;;11.40;;
7833;SDS011;3962;42.696;23.354;2022-09-27T09:47:56;14.50;;;11.77;;
7833;SDS011;3962;42.696;23.354;2022-09-27T09:50:29;15.30;;;11.17;;
7833;SDS011;3962;42.696;23.354;2022-09-27T09:53:02;14.33;;;10.50;;
7833;SDS011;3962;42.696;23.354;2022-09-27T09:55:37;10.93;;;9.43;;
7833;SDS011;3962;42.696;23.354;2022-09-27T09:58:10;17.80;;;11.77;;
7833;SDS011;3962;42.696;23.354;2022-09-27T10:00:45;12.23;;;10.93;;
7833;SDS011;3962;42.696;23.354;2022-09-27T10:03:16;12.40;;;10.20;;
7833;SDS011;3962;42.696;23.354;2022-09-27T10:05:44;15.03;;;10.87;;
7833;SDS011;3962;42.696;23.354;2022-09-27T10:08:15;13.27;;;10.47;;
7833;SDS011;3962;42.696;23.354;2022-09-27T10:10:44;14.17;;;10.87;;
7833;SDS011;3962;42.696;23.354;2022-09-27T10:13:12;13.33;;;10.80;;
7833;SDS011;3962;42.696;23.354;2022-09-27T10:15:41;12.40;;;11.07;;
7833;SDS011;3962;42.696;23.354;2022-09-27T10:18:11;12.37;;;9.30;;
7833;SDS011;3962;42.696;23.354;2022-09-27T10:20:46;13.27;;;10.53;;
7833;SDS011;3962;42.696;23.354;2022-09-27T10:23:16;35.87;;;28.50;;
7833;SDS011;3962;42.696;23.354;2022-09-27T10:25:47;23.80;;;16.30;;
7833;SDS011;3962;42.696;23.354;2022-09-27T10:28:31;12.77;;;10.47;;
7833;SDS011;3962;42.696;23.354;2022-09-27T10:31:02;12.33;;;10.20;;
7833;SDS011;3962;42.696;23.354;2022-09-27T10:33:30;12.13;;;10.47;;
7833;SDS011;3962;42.696;23.354;2022-09-27T10:36:00;11.87;;;9.03;;
7833;SDS011;3962;42.696;23.354;2022-09-27T10:38:28;10.47;;;8.93;;
7833;SDS011;3962;42.696;23.354;2022-09-27T10:40:57;11.00;;;9.43;;
7833;SDS011;3962;42.696;23.354;2022-09-27T10:43:41;9.97;;;8.80;;
7833;SDS011;3962;42.696;23.354;2022-09-27T10:46:09;9.80;;;8.80;;
7833;SDS011;3962;42.696;23.354;2022-09-27T10:48:40;10.33;;;9.30;;
7833;SDS011;3962;42.696;23.354;2022-09-27T10:51:19;8.90;;;7.87;;
7833;SDS011;3962;42.696;23.354;2022-09-27T10:53:50;9.43;;;7.77;;
7833;SDS011;3962;42.696;23.354;2022-09-27T10:56:19;8.50;;;7.37;;
7833;SDS011;3962;42.696;23.354;2022-09-27T10:58:49;8.37;;;7.33;;
7833;SDS011;3962;42.696;23.354;2022-09-27T11:01:16;9.40;;;7.63;;
7833;SDS011;3962;42.696;23.354;2022-09-27T11:03:45;9.37;;;7.40;;
7833;SDS011;3962;42.696;23.354;2022-09-27T11:06:23;8.53;;;7.47;;
7833;SDS011;3962;42.696;23.354;2022-09-27T11:08:54;14.80;;;10.43;;
7833;SDS011;3962;42.696;23.354;2022-09-27T11:11:24;9.40;;;7.30;;
7833;SDS011;3962;42.696;23.354;2022-09-27T11:13:56;11.47;;;7.40;;
7833;SDS011;3962;42.696;23.354;2022-09-27T11:16:37;7.93;;;6.90;;
7833;SDS011;3962;42.696;23.354;2022-09-27T11:19:17;7.30;;;6.60;;
7833;SDS011;3962;42.696;23.354;2022-09-27T11:22:00;7.87;;;6.77;;
7833;SDS011;3962;42.696;23.354;2022-09-27T11:24:44;6.83;;;6.13;;
7833;SDS011;3962;42.696;23.354;2022-09-27T11:27:24;8.33;;;6.60;;
7833;SDS011;3962;42.696;23.354;2022-09-27T11:30:03;6.70;;;6.10;;
7833;SDS011;3962;42.696;23.354;2022-09-27T11:32:38;8.03;;;6.60;;
7833;SDS011;3962;42.696;23.354;2022-09-27T11:35:32;8.70;;;6.60;;
7833;SDS011;3962;42.696;23.354;2022-09-27T11:38:15;7.97;;;5.90;;
7833;SDS011;3962;42.696;23.354;2022-09-27T11:40:54;6.17;;;5.60;;
7833;SDS011;3962;42.696;23.354;2022-09-27T11:43:55;7.20;;;6.00;;
7833;SDS011;3962;42.696;23.354;2022-09-27T11:46:34;10.73;;;6.47;;
7833;SDS011;3962;42.696;23.354;2022-09-27T11:49:12;7.03;;;5.87;;
7833;SDS011;3962;42.696;23.354;2022-09-27T11:51:53;6.73;;;5.53;;
7833;SDS011;3962;42.696;23.354;2022-09-27T11:57:27;7.57;;;5.90;;
7833;SDS011;3962;42.696;23.354;2022-09-27T12:00:03;7.20;;;5.47;;
7833;SDS011;3962;42.696;23.354;2022-09-27T12:05:31;6.13;;;5.53;;
7833;SDS011;3962;42.696;23.354;2022-09-27T12:08:11;6.67;;;5.53;;
7833;SDS011;3962;42.696;23.354;2022-09-27T12:10:51;8.23;;;6.23;;
7833;SDS011;3962;42.696;23.354;2022-09-27T12:13:27;7.03;;;6.07;;
7833;SDS011;3962;42.696;23.354;2022-09-27T12:15:58;7.53;;;6.57;;
7833;SDS011;3962;42.696;23.354;2022-09-27T12:18:26;8.37;;;5.70;;
7833;SDS011;3962;42.696;23.354;2022-09-27T12:20:58;6.80;;;6.20;;
7833;SDS011;3962;42.696;23.354;2022-09-27T12:23:29;7.90;;;6.23;;
7833;SDS011;3962;42.696;23.354;2022-09-27T12:26:06;8.40;;;6.10;;
7833;SDS011;3962;42.696;23.354;2022-09-27T12:28:38;11.03;;;6.27;;
7833;SDS011;3962;42.696;23.354;2022-09-27T12:31:12;9.20;;;5.60;;
7833;SDS011;3962;42.696;23.354;2022-09-27T12:33:48;9.73;;;6.47;;
7833;SDS011;3962;42.696;23.354;2022-09-27T12:36:23;7.83;;;5.43;;
7833;SDS011;3962;42.696;23.354;2022-09-27T12:38:55;6.10;;;5.13;;
7833;SDS011;3962;42.696;23.354;2022-09-27T12:41:29;6.50;;;5.00;;
7833;SDS011;3962;42.696;23.354;2022-09-27T12:44:01;8.27;;;5.83;;
7833;SDS011;3962;42.696;23.354;2022-09-27T12:46:31;10.77;;;4.83;;
7833;SDS011;3962;42.696;23.354;2022-09-27T12:49:10;13.50;;;8.33;;
7833;SDS011;3962;42.696;23.354;2022-09-27T12:51:43;7.07;;;5.83;;
7833;SDS011;3962;42.696;23.354;2022-09-27T12:54:21;5.10;;;4.60;;
7833;SDS011;3962;42.696;23.354;2022-09-27T12:57:01;7.03;;;4.50;;
7833;SDS011;3962;42.696;23.354;2022-09-27T12:59:43;7.90;;;4.67;;
7833;SDS011;3962;42.696;23.354;2022-09-27T13:05:37;5.33;;;3.87;;
7833;SDS011;3962;42.696;23.354;2022-09-27T13:08:21;5.30;;;4.43;;
7833;SDS011;3962;42.696;23.354;2022-09-27T13:10:59;4.20;;;3.77;;
7833;SDS011;3962;42.696;23.354;2022-09-27T13:13:39;5.13;;;4.00;;
7833;SDS011;3962;42.696;23.354;2022-09-27T13:16:06;5.63;;;5.00;;
7833;SDS011;3962;42.696;23.354;2022-09-27T13:18:50;6.07;;;5.40;;
7833;SDS011;3962;42.696;23.354;2022-09-27T13:33:28;4.70;;;4.23;;
7833;SDS011;3962;42.696;23.354;2022-09-27T13:36:15;5.17;;;4.07;;
7833;SDS011;3962;42.696;23.354;2022-09-27T13:38:52;4.03;;;3.67;;
7833;SDS011;3962;42.696;23.354;2022-09-27T13:41:31;4.73;;;4.33;;
7833;SDS011;3962;42.696;23.354;2022-09-27T13:44:18;6.63;;;4.53;;
7833;SDS011;3962;42.696;23.354;2022-09-27T13:46:52;6.67;;;4.70;;
7833;SDS011;3962;42.696;23.354;2022-09-27T13:49:25;5.93;;;4.67;;
7833;SDS011;3962;42.696;23.354;2022-09-27T13:51:56;7.67;;;4.90;;
7833;SDS011;3962;42.696;23.354;2022-09-27T13:54:38;5.93;;;4.70;;
7833;SDS011;3962;42.696;23.354;2022-09-27T14:00:08;4.37;;;3.97;;
7833;SDS011;3962;42.696;23.354;2022-09-27T14:02:38;4.77;;;3.80;;
7833;SDS011;3962;42.696;23.354;2022-09-27T14:05:19;4.93;;;4.30;;
7833;SDS011;3962;42.696;23.354;2022-09-27T14:07:49;5.37;;;3.70;;
7833;SDS011;3962;42.696;23.354;2022-09-27T14:10:17;4.70;;;3.80;;
7833;SDS011;3962;42.696;23.354;2022-09-27T14:12:47;6.73;;;3.87;;
7833;SDS011;3962;42.696;23.354;2022-09-27T14:15:17;4.17;;;3.77;;
7833;SDS011;3962;42.696;23.354;2022-09-27T14:17:47;4.40;;;3.30;;
7833;SDS011;3962;42.696;23.354;2022-09-27T14:20:32;5.00;;;3.50;;
7833;SDS011;3962;42.696;23.354;2022-09-27T14:23:01;4.57;;;3.20;;
7833;SDS011;3962;42.696;23.354;2022-09-27T14:25:28;4.60;;;3.43;;
7833;SDS011;3962;42.696;23.354;2022-09-27T14:27:57;6.87;;;3.37;;
7833;SDS011;3962;42.696;23.354;2022-09-27T14:30:25;6.43;;;3.80;;
7833;SDS011;3962;42.696;23.354;2022-09-27T14:32:54;6.07;;;3.57;;
7833;SDS011;3962;42.696;23.354;2022-09-27T14:35:25;7.63;;;4.80;;
7833;SDS011;3962;42.696;23.354;2022-09-27T14:38:12;6.57;;;3.93;;
7833;SDS011;3962;42.696;23.354;2022-09-27T14:40:41;6.93;;;3.83;;
7833;SDS011;3962;42.696;23.354;2022-09-27T14:43:12;4.73;;;4.00;;
7833;SDS011;3962;42.696;23.354;2022-09-27T14:45:42;6.10;;;3.93;;
7833;SDS011;3962;42.696;23.354;2022-09-27T14:48:19;5.43;;;3.03;;
7833;SDS011;3962;42.696;23.354;2022-09-27T14:50:55;4.70;;;3.63;;
7833;SDS011;3962;42.696;23.354;2022-09-27T14:53:27;3.93;;;3.53;;
7833;SDS011;3962;42.696;23.354;2022-09-27T14:55:55;7.03;;;4.03;;
7833;SDS011;3962;42.696;23.354;2022-09-27T14:58:22;5.67;;;3.57;;
7833;SDS011;3962;42.696;23.354;2022-09-27T15:00:51;5.87;;;4.03;;
7833;SDS011;3962;42.696;23.354;2022-09-27T15:03:19;5.10;;;4.20;;
7833;SDS011;3962;42.696;23.354;2022-09-27T15:05:52;6.57;;;3.93;;
7833;SDS011;3962;42.696;23.354;2022-09-27T15:08:20;6.10;;;3.83;;
7833;SDS011;3962;42.696;23.354;2022-09-27T15:10:51;9.43;;;4.20;;
7833;SDS011;3962;42.696;23.354;2022-09-27T15:13:19;13.90;;;6.17;;
7833;SDS011;3962;42.696;23.354;2022-09-27T15:15:46;14.30;;;6.73;;
7833;SDS011;3962;42.696;23.354;2022-09-27T15:18:30;7.53;;;3.40;;
7833;SDS011;3962;42.696;23.354;2022-09-27T15:21:05;6.80;;;2.73;;
7833;SDS011;3962;42.696;23.354;2022-09-27T15:23:34;4.67;;;2.57;;
7833;SDS011;3962;42.696;23.354;2022-09-27T15:26:05;5.53;;;2.80;;
7833;SDS011;3962;42.696;23.354;2022-09-27T15:28:36;7.83;;;3.40;;
7833;SDS011;3962;42.696;23.354;2022-09-27T15:31:10;4.73;;;3.10;;
7833;SDS011;3962;42.696;23.354;2022-09-27T15:33:38;5.93;;;3.20;;
7833;SDS011;3962;42.696;23.354;2022-09-27T15:36:06;6.33;;;3.63;;
7833;SDS011;3962;42.696;23.354;2022-09-27T15:38:34;10.10;;;4.17;;
7833;SDS011;3962;42.696;23.354;2022-09-27T15:41:06;8.17;;;3.53;;
7833;SDS011;3962;42.696;23.354;2022-09-27T15:43:38;6.43;;;3.43;;
7833;SDS011;3962;42.696;23.354;2022-09-27T15:49:21;7.27;;;3.93;;
7833;SDS011;3962;42.696;23.354;2022-09-27T15:51:59;11.03;;;4.40;;